createdAt,value
2018-06-05T00:00:00.358Z,22.80
2018-06-05T00:02:33.814Z,22.60
2018-06-05T00:05:10.686Z,21.80
2018-06-05T00:07:43.831Z,21.70
2018-06-05T00:10:17.946Z,20.80
2018-06-05T00:12:52.111Z,20.50
2018-06-05T00:15:27.780Z,20.60
2018-06-05T00:18:01.781Z,21.10
2018-06-05T00:20:39.166Z,21.60
2018-06-05T00:23:12.771Z,22.00
2018-06-05T00:25:48.009Z,22.40
2018-06-05T00:28:21.270Z,22.10
2018-06-05T00:30:54.320Z,21.90
2018-06-05T00:33:28.014Z,21.80
2018-06-05T00:36:06.338Z,21.20
2018-06-05T00:38:40.019Z,20.80
2018-06-05T00:41:13.834Z,20.60
2018-06-05T00:43:47.513Z,19.70
2018-06-05T00:46:21.720Z,19.50
2018-06-05T00:48:55.885Z,19.70
2018-06-05T00:51:38.468Z,19.90
2018-06-05T00:54:12.286Z,21.00
2018-06-05T00:56:45.961Z,22.50
2018-06-05T00:59:19.444Z,23.60
2018-06-05T01:01:52.800Z,24.30
2018-06-05T01:04:25.833Z,24.80
2018-06-05T01:07:03.594Z,24.80
2018-06-05T01:09:37.116Z,25.20
2018-06-05T01:12:10.493Z,25.30
2018-06-05T01:14:43.913Z,25.40
2018-06-05T01:17:17.386Z,25.50
2018-06-05T01:19:51.673Z,25.10
2018-06-05T01:22:25.049Z,24.70
2018-06-05T01:24:58.797Z,23.90
2018-06-05T01:27:32.356Z,23.60
2018-06-05T01:30:06.281Z,23.40
2018-06-05T01:32:44.530Z,22.80
2018-06-05T01:37:50.494Z,23.20
2018-06-05T01:40:24.610Z,23.10
2018-06-05T01:42:58.052Z,22.70
2018-06-05T01:45:33.441Z,22.80
2018-06-05T01:48:10.639Z,22.70
2018-06-05T01:50:47.198Z,21.90
2018-06-05T01:53:20.800Z,21.10
2018-06-05T01:55:54.365Z,21.20
2018-06-05T01:58:27.615Z,21.20
2018-06-05T02:01:00.791Z,21.80
2018-06-05T02:03:34.030Z,22.90
2018-06-05T02:06:08.086Z,23.40
2018-06-05T02:08:43.096Z,23.30
2018-06-05T02:11:17.229Z,23.10
2018-06-05T02:13:51.434Z,22.30
2018-06-05T02:16:24.823Z,22.30
2018-06-05T02:18:58.386Z,22.00
2018-06-05T02:21:31.801Z,21.00
2018-06-05T02:24:05.517Z,20.40
2018-06-05T02:26:43.424Z,20.00
2018-06-05T02:29:17.879Z,19.50
2018-06-05T02:31:51.326Z,19.30
2018-06-05T02:34:24.893Z,19.20
2018-06-05T02:36:58.568Z,19.00
2018-06-05T02:39:32.148Z,19.00
2018-06-05T02:42:05.599Z,18.90
2018-06-05T02:44:39.062Z,18.90
2018-06-05T02:47:16.984Z,18.80
2018-06-05T02:49:54.067Z,18.70
2018-06-05T02:52:27.773Z,18.60
2018-06-05T02:55:01.374Z,18.50
2018-06-05T02:57:35.181Z,18.40
2018-06-05T03:02:40.757Z,18.20
2018-06-05T03:05:14.655Z,18.10
2018-06-05T03:07:48.150Z,18.00
2018-06-05T03:10:22.556Z,17.90
2018-06-05T03:12:55.970Z,17.70
2018-06-05T03:15:29.423Z,17.50
2018-06-05T03:18:06.081Z,17.40
2018-06-05T03:20:39.834Z,17.30
2018-06-05T03:23:13.596Z,17.20
2018-06-05T03:25:47.521Z,17.00
2018-06-05T03:28:21.321Z,16.90
2018-06-05T03:30:54.533Z,16.80
2018-06-05T03:33:28.158Z,16.60
2018-06-05T03:36:01.495Z,16.50
2018-06-05T03:38:35.060Z,16.40
2018-06-05T03:41:09.332Z,16.30
2018-06-05T03:43:42.963Z,16.20
2018-06-05T03:46:16.580Z,16.00
2018-06-05T03:48:51.092Z,16.00
2018-06-05T03:51:25.227Z,15.90
2018-06-05T03:53:58.133Z,15.80
2018-06-05T03:56:31.346Z,15.60
2018-06-05T03:59:04.478Z,15.50
2018-06-05T04:04:09.611Z,15.20
2018-06-05T04:06:42.571Z,15.10
2018-06-05T04:09:15.726Z,15.00
2018-06-05T04:11:48.797Z,14.80
2018-06-05T04:14:22.626Z,14.80
2018-06-05T04:16:59.583Z,14.60
2018-06-05T04:19:32.868Z,14.60
2018-06-05T04:22:05.970Z,14.40
2018-06-05T04:24:39.178Z,14.40
2018-06-05T04:27:12.160Z,14.30
2018-06-05T04:29:45.330Z,14.30
2018-06-05T04:32:20.782Z,14.20
2018-06-05T04:34:54.031Z,14.10
2018-06-05T04:37:29.782Z,14.00
2018-06-05T04:40:03.593Z,13.90
2018-06-05T04:42:37.422Z,13.90
2018-06-05T04:45:11.274Z,13.80
2018-06-05T04:47:44.855Z,13.60
2018-06-05T04:50:18.203Z,13.60
2018-06-05T04:52:51.806Z,13.50
2018-06-05T04:55:25.541Z,13.40
2018-06-05T04:57:59.427Z,13.40
2018-06-05T05:00:33.201Z,13.40
2018-06-05T05:03:06.578Z,13.30
2018-06-05T05:05:40.234Z,13.20
2018-06-05T05:08:13.623Z,13.20
2018-06-05T05:10:46.827Z,13.10
2018-06-05T05:13:20.885Z,13.10
2018-06-05T05:15:54.767Z,13.00
2018-06-05T05:18:29.264Z,13.00
2018-06-05T05:21:02.867Z,12.90
2018-06-05T05:23:36.587Z,12.90
2018-06-05T05:26:10.329Z,12.90
2018-06-05T05:28:43.976Z,12.90
2018-06-05T05:31:17.388Z,12.90
2018-06-05T05:33:51.276Z,12.90
2018-06-05T05:36:25.184Z,12.90
2018-06-05T05:38:58.788Z,12.80
2018-06-05T05:41:32.436Z,12.70
2018-06-05T05:44:06.181Z,12.70
2018-06-05T05:46:40.213Z,12.70
2018-06-05T05:49:13.964Z,12.60
2018-06-05T05:51:47.449Z,12.40
2018-06-05T05:54:21.014Z,12.30
2018-06-05T05:56:54.723Z,12.20
2018-06-05T05:59:28.692Z,12.20
2018-06-05T06:02:01.948Z,12.20
2018-06-05T06:04:35.328Z,12.10
2018-06-05T06:07:08.535Z,12.10
2018-06-05T06:09:42.828Z,12.10
2018-06-05T06:12:16.490Z,12.10
2018-06-05T06:14:49.833Z,12.10
2018-06-05T06:17:23.185Z,12.00
2018-06-05T06:19:56.494Z,12.00
2018-06-05T06:22:30.038Z,11.90
2018-06-05T06:25:03.599Z,11.90
2018-06-05T06:27:36.930Z,11.90
2018-06-05T06:30:10.583Z,12.00
2018-06-05T06:32:44.094Z,11.90
2018-06-05T06:35:17.537Z,11.90
2018-06-05T06:37:51.180Z,11.80
2018-06-05T06:40:24.557Z,11.80
2018-06-05T06:42:57.728Z,11.80
2018-06-05T06:45:31.442Z,11.80
2018-06-05T06:48:04.989Z,11.80
2018-06-05T06:50:39.146Z,11.70
2018-06-05T06:53:12.727Z,11.80
2018-06-05T06:55:46.298Z,11.80
2018-06-05T06:58:19.894Z,11.80
2018-06-05T07:00:53.414Z,11.80
2018-06-05T07:03:27.034Z,11.80
2018-06-05T07:06:00.892Z,11.80
2018-06-05T07:08:34.244Z,11.70
2018-06-05T07:11:07.609Z,11.70
2018-06-05T07:13:41.305Z,11.70
2018-06-05T07:16:14.795Z,11.60
2018-06-05T07:18:48.340Z,11.60
2018-06-05T07:21:22.472Z,11.60
2018-06-05T07:23:55.991Z,11.50
2018-06-05T07:26:29.383Z,11.50
2018-06-05T07:29:02.840Z,11.40
2018-06-05T07:31:36.205Z,11.30
2018-06-05T07:34:09.485Z,11.30
2018-06-05T07:36:43.942Z,11.20
2018-06-05T07:39:17.754Z,11.20
2018-06-05T07:41:51.182Z,11.20
2018-06-05T07:44:24.595Z,11.10
2018-06-05T07:46:58.529Z,11.10
2018-06-05T07:49:32.278Z,11.10
2018-06-05T07:52:05.890Z,11.10
2018-06-05T07:54:39.602Z,11.10
2018-06-05T07:57:13.228Z,11.20
2018-06-05T07:59:46.377Z,11.20
2018-06-05T08:02:19.764Z,11.10
2018-06-05T08:04:53.383Z,11.10
2018-06-05T08:07:26.836Z,11.10
2018-06-05T08:10:00.223Z,11.10
2018-06-05T08:12:34.138Z,11.00
2018-06-05T08:15:07.872Z,11.00
2018-06-05T08:17:41.215Z,11.10
2018-06-05T08:20:14.581Z,11.10
2018-06-05T08:22:57.404Z,11.20
2018-06-05T08:25:31.201Z,11.20
2018-06-05T08:28:05.004Z,11.20
2018-06-05T08:30:38.921Z,11.20
2018-06-05T08:33:12.209Z,11.20
2018-06-05T08:35:45.657Z,11.10
2018-06-05T08:38:18.810Z,11.10
2018-06-05T08:40:52.455Z,11.00
2018-06-05T08:43:26.100Z,10.90
2018-06-05T08:45:59.687Z,10.90
2018-06-05T08:48:33.329Z,10.90
2018-06-05T08:51:06.481Z,10.80
2018-06-05T08:53:40.057Z,10.80
2018-06-05T08:58:45.657Z,10.70
2018-06-05T09:01:19.086Z,10.70
2018-06-05T09:03:52.661Z,10.70
2018-06-05T09:06:26.443Z,10.70
2018-06-05T09:09:00.160Z,10.60
2018-06-05T09:11:33.561Z,10.70
2018-06-05T09:14:07.518Z,10.60
2018-06-05T09:16:40.764Z,10.60
2018-06-05T09:19:14.305Z,10.50
2018-06-05T09:21:47.971Z,10.30
2018-06-05T09:24:21.900Z,10.10
2018-06-05T09:26:55.458Z,10.00
2018-06-05T09:29:28.540Z,9.90
2018-06-05T09:32:02.510Z,10.00
2018-06-05T09:34:35.963Z,10.10
2018-06-05T09:37:09.989Z,10.10
2018-06-05T09:39:44.401Z,10.10
2018-06-05T09:42:18.153Z,10.10
2018-06-05T09:44:52.184Z,10.10
2018-06-05T09:47:26.135Z,10.10
2018-06-05T09:50:00.779Z,10.20
2018-06-05T09:52:34.052Z,10.10
2018-06-05T09:55:07.766Z,10.20
2018-06-05T09:57:42.774Z,10.10
2018-06-05T10:00:16.388Z,10.10
2018-06-05T10:02:50.569Z,10.10
2018-06-05T10:05:24.726Z,10.10
2018-06-05T10:07:58.353Z,10.10
2018-06-05T10:10:32.372Z,10.10
2018-06-05T10:13:05.617Z,10.10
2018-06-05T10:15:39.305Z,10.10
2018-06-05T10:18:13.042Z,9.90
2018-06-05T10:20:46.734Z,9.90
2018-06-05T10:23:20.717Z,9.90
2018-06-05T10:25:54.166Z,9.90
2018-06-05T10:28:27.349Z,10.00
2018-06-05T10:31:00.834Z,9.90
2018-06-05T10:33:34.492Z,9.90
2018-06-05T10:36:08.788Z,9.90
2018-06-05T10:38:42.436Z,9.90
2018-06-05T10:41:16.242Z,9.90
2018-06-05T10:43:49.538Z,9.90
2018-06-05T10:46:22.952Z,9.80
2018-06-05T10:48:57.803Z,9.80
2018-06-05T10:51:31.456Z,9.70
2018-06-05T10:54:04.977Z,9.70
2018-06-05T10:56:38.564Z,9.70
2018-06-05T10:59:12.669Z,9.70
2018-06-05T11:01:46.696Z,9.60
2018-06-05T11:04:20.862Z,9.40
2018-06-05T11:06:54.379Z,9.40
2018-06-05T11:09:27.836Z,9.30
2018-06-05T11:12:01.947Z,9.30
2018-06-05T11:14:35.730Z,9.20
2018-06-05T11:17:09.297Z,9.10
2018-06-05T11:19:42.754Z,9.00
2018-06-05T11:22:16.121Z,8.90
2018-06-05T11:24:49.498Z,8.90
2018-06-05T11:27:22.907Z,8.90
2018-06-05T11:32:28.770Z,9.00
2018-06-05T11:35:02.508Z,8.90
2018-06-05T11:37:35.902Z,8.90
2018-06-05T11:40:09.569Z,8.90
2018-06-05T11:42:43.104Z,9.00
2018-06-05T11:45:16.737Z,9.00
2018-06-05T11:47:50.205Z,9.10
2018-06-05T11:50:23.900Z,9.10
2018-06-05T11:52:57.797Z,9.10
2018-06-05T11:55:31.613Z,9.10
2018-06-05T11:58:05.248Z,9.10
2018-06-05T12:00:38.963Z,9.10
2018-06-05T12:03:12.653Z,9.20
2018-06-05T12:05:46.200Z,9.10
2018-06-05T12:08:20.040Z,9.10
2018-06-05T12:10:53.772Z,9.10
2018-06-05T12:13:27.256Z,9.10
2018-06-05T12:16:00.893Z,9.20
2018-06-05T12:18:34.419Z,9.30
2018-06-05T12:23:40.245Z,9.30
2018-06-05T12:26:14.027Z,9.40
2018-06-05T12:28:48.347Z,9.40
2018-06-05T12:31:21.980Z,9.40
2018-06-05T12:33:55.565Z,9.40
2018-06-05T12:36:29.454Z,9.50
2018-06-05T12:39:03.430Z,9.40
2018-06-05T12:41:36.873Z,9.40
2018-06-05T12:44:11.308Z,9.50
2018-06-05T12:46:44.886Z,9.50
2018-06-05T12:49:18.433Z,9.60
2018-06-05T12:51:51.847Z,9.60
2018-06-05T12:54:25.413Z,9.60
2018-06-05T12:56:59.085Z,9.70
2018-06-05T12:59:33.119Z,9.70
2018-06-05T13:02:07.099Z,9.80
2018-06-05T13:04:40.494Z,9.80
2018-06-05T13:07:14.428Z,9.90
2018-06-05T13:09:48.027Z,9.90
2018-06-05T13:12:21.022Z,10.10
2018-06-05T13:14:55.155Z,10.10
2018-06-05T13:17:28.665Z,10.20
2018-06-05T13:20:02.424Z,10.20
2018-06-05T13:22:35.855Z,10.20
2018-06-05T13:25:09.368Z,10.20
2018-06-05T13:27:43.017Z,10.10
2018-06-05T13:30:16.831Z,10.10
2018-06-05T13:32:50.805Z,10.10
2018-06-05T13:35:24.397Z,10.10
2018-06-05T13:37:57.680Z,10.20
2018-06-05T13:40:31.364Z,10.30
2018-06-05T13:43:04.937Z,10.40
2018-06-05T13:45:38.665Z,10.50
2018-06-05T13:48:12.148Z,10.50
2018-06-05T13:50:45.759Z,10.40
2018-06-05T13:53:19.478Z,10.40
2018-06-05T13:55:52.986Z,10.50
2018-06-05T13:58:26.365Z,10.70
2018-06-05T14:00:59.863Z,10.90
2018-06-05T14:03:33.162Z,10.90
2018-06-05T14:06:06.428Z,10.90
2018-06-05T14:08:39.666Z,11.10
2018-06-05T14:11:13.143Z,11.00
2018-06-05T14:13:47.032Z,11.00
2018-06-05T14:16:20.843Z,11.10
2018-06-05T14:18:54.362Z,11.20
2018-06-05T14:21:27.651Z,11.30
2018-06-05T14:24:01.002Z,11.20
2018-06-05T14:26:34.743Z,11.10
2018-06-05T14:29:08.449Z,11.20
2018-06-05T14:31:41.823Z,11.30
2018-06-05T14:34:15.385Z,11.40
2018-06-05T14:36:49.133Z,11.50
2018-06-05T14:39:22.944Z,11.40
2018-06-05T14:41:56.774Z,11.50
2018-06-05T14:44:30.524Z,11.40
2018-06-05T14:47:03.769Z,11.50
2018-06-05T14:49:38.736Z,11.70
2018-06-05T14:52:12.436Z,11.90
2018-06-05T14:54:46.139Z,12.10
2018-06-05T14:57:19.608Z,12.10
2018-06-05T14:59:53.338Z,12.30
2018-06-05T15:02:27.520Z,12.20
2018-06-05T15:05:01.190Z,12.40
2018-06-05T15:07:34.618Z,12.70
2018-06-05T15:10:08.273Z,12.60
2018-06-05T15:12:42.713Z,12.40
2018-06-05T15:15:16.001Z,12.30
2018-06-05T15:17:49.429Z,12.30
2018-06-05T15:20:23.281Z,12.50
2018-06-05T15:22:56.472Z,12.40
2018-06-05T15:25:30.234Z,12.40
2018-06-05T15:28:04.188Z,12.60
2018-06-05T15:30:37.672Z,13.00
2018-06-05T15:33:11.255Z,13.10
2018-06-05T15:35:45.404Z,13.00
2018-06-05T15:38:18.797Z,12.60
2018-06-05T15:40:52.168Z,12.80
2018-06-05T15:43:26.111Z,12.90
2018-06-05T15:46:00.633Z,13.00
2018-06-05T15:48:33.764Z,13.20
2018-06-05T15:51:06.714Z,13.40
2018-06-05T15:53:40.321Z,13.50
2018-06-05T15:56:13.832Z,13.60
2018-06-05T15:58:47.030Z,13.60
2018-06-05T16:01:20.128Z,13.60
2018-06-05T16:03:53.012Z,13.50
2018-06-05T16:06:26.988Z,13.30
2018-06-05T16:09:00.878Z,13.60
2018-06-05T16:11:35.877Z,13.60
2018-06-05T16:14:10.227Z,13.70
2018-06-05T16:16:44.972Z,13.80
2018-06-05T16:19:19.724Z,14.00
2018-06-05T16:21:54.207Z,14.10
2018-06-05T16:24:28.490Z,14.30
2018-06-05T16:27:02.032Z,14.50
2018-06-05T16:29:35.783Z,14.10
2018-06-05T16:32:09.334Z,14.10
2018-06-05T16:34:43.410Z,13.90
2018-06-05T16:37:17.768Z,14.00
2018-06-05T16:39:52.359Z,13.90
2018-06-05T16:42:26.131Z,14.20
2018-06-05T16:45:00.907Z,14.40
2018-06-05T16:47:34.840Z,14.30
2018-06-05T16:50:09.092Z,14.30
2018-06-05T16:52:42.429Z,14.40
2018-06-05T16:55:15.409Z,14.70
2018-06-05T16:57:49.399Z,14.80
2018-06-05T17:00:23.472Z,15.00
2018-06-05T17:02:58.163Z,15.20
2018-06-05T17:05:31.371Z,15.00
2018-06-05T17:08:04.631Z,14.70
2018-06-05T17:10:38.943Z,14.80
2018-06-05T17:13:12.755Z,14.70
2018-06-05T17:15:46.292Z,15.00
2018-06-05T17:18:20.033Z,15.20
2018-06-05T17:20:53.498Z,15.40
2018-06-05T17:23:26.890Z,15.20
2018-06-05T17:26:00.474Z,15.30
2018-06-05T17:28:34.214Z,15.10
2018-06-05T17:31:07.712Z,15.20
2018-06-05T17:33:41.358Z,15.60
2018-06-05T17:36:14.785Z,15.20
2018-06-05T17:38:48.177Z,15.20
2018-06-05T17:41:21.769Z,15.50
2018-06-05T17:43:55.640Z,15.90
2018-06-05T17:46:29.440Z,16.20
2018-06-05T17:49:03.040Z,15.80
2018-06-05T17:51:36.504Z,15.70
2018-06-05T17:54:10.196Z,15.70
2018-06-05T17:56:43.782Z,16.20
2018-06-05T17:59:17.648Z,16.50
2018-06-05T18:01:50.981Z,16.60
2018-06-05T18:04:24.473Z,16.40
2018-06-05T18:06:58.182Z,16.30
2018-06-05T18:09:31.925Z,16.60
2018-06-05T18:12:05.912Z,16.10
2018-06-05T18:14:40.118Z,16.00
2018-06-05T18:17:14.117Z,16.20
2018-06-05T18:19:47.842Z,16.50
2018-06-05T18:22:22.803Z,16.30
2018-06-05T18:24:56.833Z,16.50
2018-06-05T18:27:30.732Z,17.00
2018-06-05T18:30:04.797Z,16.40
2018-06-05T18:32:38.666Z,17.10
2018-06-05T18:35:13.172Z,16.90
2018-06-05T18:37:46.898Z,17.00
2018-06-05T18:40:20.654Z,16.90
2018-06-05T18:42:54.320Z,17.00
2018-06-05T18:45:29.296Z,17.30
2018-06-05T18:48:02.852Z,17.50
2018-06-05T18:50:36.416Z,17.80
2018-06-05T18:53:10.194Z,17.60
2018-06-05T18:55:44.242Z,18.10
2018-06-05T18:58:18.195Z,17.30
2018-06-05T19:00:52.075Z,17.40
2018-06-05T19:03:25.928Z,17.40
2018-06-05T19:05:59.853Z,17.30
2018-06-05T19:08:33.531Z,17.50
2018-06-05T19:11:07.058Z,17.50
2018-06-05T19:13:40.206Z,17.80
2018-06-05T19:16:13.757Z,17.30
2018-06-05T19:18:47.095Z,17.60
2018-06-05T19:21:20.739Z,17.80
2018-06-05T19:23:54.804Z,17.90
2018-06-05T19:26:28.342Z,18.20
2018-06-05T19:29:01.901Z,18.10
2018-06-05T19:34:08.219Z,18.50
2018-06-05T19:36:41.846Z,18.50
2018-06-05T19:39:15.755Z,17.90
2018-06-05T19:41:49.475Z,18.00
2018-06-05T19:44:23.561Z,18.20
2018-06-05T19:46:57.329Z,18.30
2018-06-05T19:49:30.666Z,18.00
2018-06-05T19:52:04.905Z,18.00
2018-06-05T19:54:39.456Z,17.60
2018-06-05T19:57:12.992Z,17.60
2018-06-05T19:59:45.928Z,18.00
2018-06-05T20:02:19.428Z,18.10
2018-06-05T20:04:52.664Z,18.10
2018-06-05T20:07:26.116Z,18.20
2018-06-05T20:12:32.657Z,18.70
2018-06-05T20:15:06.732Z,19.00
2018-06-05T20:17:41.099Z,19.00
2018-06-05T20:20:15.077Z,19.40
2018-06-05T20:22:50.612Z,19.20
2018-06-05T20:27:56.464Z,18.60
2018-06-05T20:30:30.312Z,18.60
2018-06-05T20:33:03.636Z,18.90
2018-06-05T20:35:37.989Z,19.30
2018-06-05T20:38:11.440Z,19.10
2018-06-05T20:40:44.905Z,18.70
2018-06-05T20:43:18.306Z,19.20
2018-06-05T20:45:51.834Z,18.90
2018-06-05T20:48:25.888Z,19.10
2018-06-05T20:50:59.564Z,19.70
2018-06-05T20:53:33.615Z,19.70
2018-06-05T20:56:08.153Z,19.10
2018-06-05T20:58:42.372Z,18.80
2018-06-05T21:01:16.531Z,18.50
2018-06-05T21:03:50.561Z,18.40
2018-06-05T21:06:23.650Z,18.30
2018-06-05T21:08:57.291Z,18.30
2018-06-05T21:11:30.476Z,18.40
2018-06-05T21:14:04.272Z,18.20
2018-06-05T21:16:37.503Z,18.20
2018-06-05T21:19:11.883Z,18.40
2018-06-05T21:21:46.406Z,18.50
2018-06-05T21:24:20.453Z,18.60
2018-06-05T21:26:55.173Z,18.30
2018-06-05T21:29:29.263Z,18.70
2018-06-05T21:32:02.803Z,18.50
2018-06-05T21:34:36.152Z,18.00
2018-06-05T21:37:09.947Z,17.90
2018-06-05T21:39:44.275Z,18.00
2018-06-05T21:42:18.232Z,18.30
2018-06-05T21:44:51.799Z,18.50
2018-06-05T21:47:25.554Z,18.80
2018-06-05T21:52:55.102Z,18.70
2018-06-05T21:55:29.691Z,18.90
2018-06-05T21:58:03.939Z,19.30
2018-06-05T22:00:38.063Z,19.00
2018-06-05T22:03:12.458Z,19.20
2018-06-05T22:05:46.294Z,19.30
2018-06-05T22:08:19.630Z,19.00
2018-06-05T22:10:52.864Z,19.00
2018-06-05T22:13:26.448Z,18.90
2018-06-05T22:15:59.975Z,19.40
2018-06-05T22:18:33.210Z,19.70
2018-06-05T22:21:06.932Z,20.20
2018-06-05T22:23:40.130Z,20.00
2018-06-05T22:26:15.313Z,19.40
2018-06-05T22:28:50.337Z,19.60
2018-06-05T22:31:23.643Z,19.40
2018-06-05T22:33:56.841Z,19.30
2018-06-05T22:36:29.865Z,19.20
2018-06-05T22:39:03.133Z,19.40
2018-06-05T22:41:36.519Z,19.40
2018-06-05T22:44:10.028Z,19.80
2018-06-05T22:46:44.607Z,20.20
2018-06-05T22:49:18.826Z,20.80
2018-06-05T22:51:52.242Z,21.10
2018-06-05T22:54:25.285Z,20.90
2018-06-05T22:56:58.924Z,20.70
2018-06-05T22:59:36.844Z,20.00
2018-06-05T23:02:10.439Z,20.50
2018-06-05T23:04:49.026Z,21.00
2018-06-05T23:07:22.445Z,21.60
2018-06-05T23:09:56.561Z,22.30
2018-06-05T23:12:29.946Z,22.90
2018-06-05T23:15:03.777Z,23.00
2018-06-05T23:17:38.362Z,23.40
2018-06-05T23:20:12.316Z,23.80
2018-06-05T23:22:47.184Z,23.90
2018-06-05T23:25:20.716Z,23.40
2018-06-05T23:27:54.487Z,22.20
2018-06-05T23:30:27.763Z,21.50
2018-06-05T23:33:01.609Z,21.30
2018-06-05T23:35:34.987Z,21.40
2018-06-05T23:38:08.302Z,21.40
2018-06-05T23:40:42.151Z,21.20
2018-06-05T23:43:15.569Z,21.20
2018-06-05T23:45:49.200Z,21.40
2018-06-05T23:48:23.199Z,21.30
2018-06-05T23:50:57.266Z,21.50
2018-06-05T23:53:33.031Z,22.00
2018-06-05T23:56:08.582Z,22.10
2018-06-05T23:58:42.812Z,22.50
